sensor_id;sensor_type;location;lat;lon;timestamp;pressure;altitude;pressure_sealevel;temperature;humidity
36834;BME280;48003;52.084;5.224;2023-12-14T00:03:05;101032.0;;;9.56;82.67
36834;BME280;48003;52.084;5.224;2023-12-14T00:04:41;101033.0;;;9.52;82.65
36834;BME280;48003;52.084;5.224;2023-12-14T00:06:17;101043.0;;;9.42;83.25
36834;BME280;48003;52.084;5.224;2023-12-14T00:07:53;101049.0;;;9.39;83.08
36834;BME280;48003;52.084;5.224;2023-12-14T00:11:06;101057.0;;;9.4;82.96
36834;BME280;48003;52.084;5.224;2023-12-14T00:12:42;101058.0;;;9.41;82.94
36834;BME280;48003;52.084;5.224;2023-12-14T00:14:19;101065.0;;;9.48;83.09
36834;BME280;48003;52.084;5.224;2023-12-14T00:17:31;101067.0;;;9.48;83.26
36834;BME280;48003;52.084;5.224;2023-12-14T00:19:07;101075.0;;;9.41;83.48
36834;BME280;48003;52.084;5.224;2023-12-14T00:20:43;101080.0;;;9.36;83.13
36834;BME280;48003;52.084;5.224;2023-12-14T00:23:55;101083.0;;;9.39;82.94
36834;BME280;48003;52.084;5.224;2023-12-14T00:25:31;101089.0;;;9.39;82.72
36834;BME280;48003;52.084;5.224;2023-12-14T00:27:07;101085.0;;;9.38;82.5
36834;BME280;48003;52.084;5.224;2023-12-14T00:28:44;101088.0;;;9.46;82.91
36834;BME280;48003;52.084;5.224;2023-12-14T00:31:56;101092.0;;;9.43;83.44
36834;BME280;48003;52.084;5.224;2023-12-14T00:33:32;101089.0;;;9.39;83.12
36834;BME280;48003;52.084;5.224;2023-12-14T00:35:08;101090.0;;;9.46;83.15
36834;BME280;48003;52.084;5.224;2023-12-14T00:38:20;101090.0;;;9.38;82.69
36834;BME280;48003;52.084;5.224;2023-12-14T00:39:56;101091.0;;;9.39;83.21
36834;BME280;48003;52.084;5.224;2023-12-14T00:41:33;101089.0;;;9.42;82.95
36834;BME280;48003;52.084;5.224;2023-12-14T00:44:44;101090.0;;;9.39;83.03
36834;BME280;48003;52.084;5.224;2023-12-14T00:46:20;101100.0;;;9.41;82.62
36834;BME280;48003;52.084;5.224;2023-12-14T00:47:56;101105.0;;;9.39;82.7
36834;BME280;48003;52.084;5.224;2023-12-14T00:51:08;101112.0;;;9.28;82.63
36834;BME280;48003;52.084;5.224;2023-12-14T00:52:44;101119.0;;;9.34;82.06
36834;BME280;48003;52.084;5.224;2023-12-14T00:54:21;101130.0;;;9.38;81.97
36834;BME280;48003;52.084;5.224;2023-12-14T00:55:57;101134.0;;;9.39;82.1
36834;BME280;48003;52.084;5.224;2023-12-14T00:59:09;101133.0;;;9.36;82.13
36834;BME280;48003;52.084;5.224;2023-12-14T01:00:46;101140.0;;;9.42;82.0
36834;BME280;48003;52.084;5.224;2023-12-14T01:02:21;101137.0;;;9.31;82.22
36834;BME280;48003;52.084;5.224;2023-12-14T01:05:33;101139.0;;;9.27;82.53
36834;BME280;48003;52.084;5.224;2023-12-14T01:07:09;101155.0;;;9.23;82.48
36834;BME280;48003;52.084;5.224;2023-12-14T01:08:46;101158.0;;;9.23;82.49
36834;BME280;48003;52.084;5.224;2023-12-14T01:11:58;101165.0;;;9.3;82.4
36834;BME280;48003;52.084;5.224;2023-12-14T01:13:34;101167.0;;;9.25;82.54
36834;BME280;48003;52.084;5.224;2023-12-14T01:15:10;101173.0;;;9.21;82.72
36834;BME280;48003;52.084;5.224;2023-12-14T01:18:23;101167.0;;;9.19;82.71
36834;BME280;48003;52.084;5.224;2023-12-14T01:19:59;101167.0;;;9.23;82.6
36834;BME280;48003;52.084;5.224;2023-12-14T01:21:35;101166.0;;;9.22;82.8
36834;BME280;48003;52.084;5.224;2023-12-14T01:23:11;101175.0;;;9.24;82.87
36834;BME280;48003;52.084;5.224;2023-12-14T01:26:24;101180.0;;;9.21;82.96
36834;BME280;48003;52.084;5.224;2023-12-14T01:28:00;101180.0;;;9.11;83.15
36834;BME280;48003;52.084;5.224;2023-12-14T01:29:36;101177.0;;;9.21;83.19
36834;BME280;48003;52.084;5.224;2023-12-14T01:32:48;101173.0;;;9.22;83.29
36834;BME280;48003;52.084;5.224;2023-12-14T01:34:24;101180.0;;;9.18;83.15
36834;BME280;48003;52.084;5.224;2023-12-14T01:36:00;101193.0;;;9.13;83.04
36834;BME280;48003;52.084;5.224;2023-12-14T01:39:13;101197.0;;;9.21;82.54
36834;BME280;48003;52.084;5.224;2023-12-14T01:40:49;101207.0;;;9.1;82.66
36834;BME280;48003;52.084;5.224;2023-12-14T01:42:25;101209.0;;;9.08;82.55
36834;BME280;48003;52.084;5.224;2023-12-14T01:44:01;101213.0;;;8.99;82.44
36834;BME280;48003;52.084;5.224;2023-12-14T01:47:13;101221.0;;;9.1;82.18
36834;BME280;48003;52.084;5.224;2023-12-14T01:48:49;101226.0;;;9.14;82.18
36834;BME280;48003;52.084;5.224;2023-12-14T01:50:25;101224.0;;;9.16;81.86
36834;BME280;48003;52.084;5.224;2023-12-14T01:53:38;101227.0;;;9.19;81.69
36834;BME280;48003;52.084;5.224;2023-12-14T01:55:14;101234.0;;;9.19;81.84
36834;BME280;48003;52.084;5.224;2023-12-14T01:56:50;101236.0;;;9.22;81.58
36834;BME280;48003;52.084;5.224;2023-12-14T02:00:03;101238.0;;;9.23;81.5
36834;BME280;48003;52.084;5.224;2023-12-14T02:01:42;101247.0;;;9.23;81.3
36834;BME280;48003;52.084;5.224;2023-12-14T02:03:18;101251.0;;;9.23;81.47
36834;BME280;48003;52.084;5.224;2023-12-14T02:06:31;101260.0;;;9.15;81.55
36834;BME280;48003;52.084;5.224;2023-12-14T02:08:07;101268.0;;;9.1;81.86
36834;BME280;48003;52.084;5.224;2023-12-14T02:09:43;101270.0;;;9.16;81.73
36834;BME280;48003;52.084;5.224;2023-12-14T02:11:19;101280.0;;;9.19;81.58
36834;BME280;48003;52.084;5.224;2023-12-14T02:14:31;101275.0;;;9.19;81.58
36834;BME280;48003;52.084;5.224;2023-12-14T02:16:08;101280.0;;;9.23;81.49
36834;BME280;48003;52.084;5.224;2023-12-14T02:17:44;101280.0;;;9.23;81.49
36834;BME280;48003;52.084;5.224;2023-12-14T02:20:56;101285.0;;;9.22;81.92
36834;BME280;48003;52.084;5.224;2023-12-14T02:22:35;101292.0;;;9.17;82.15
36834;BME280;48003;52.084;5.224;2023-12-14T02:24:12;101298.0;;;9.14;81.99
36834;BME280;48003;52.084;5.224;2023-12-14T02:27:24;101301.0;;;9.19;81.72
36834;BME280;48003;52.084;5.224;2023-12-14T02:29:00;101309.0;;;9.24;81.61
36834;BME280;48003;52.084;5.224;2023-12-14T02:30:36;101315.0;;;9.25;81.8
36834;BME280;48003;52.084;5.224;2023-12-14T02:32:13;101317.0;;;9.22;82.24
36834;BME280;48003;52.084;5.224;2023-12-14T02:35:25;101323.0;;;9.21;82.29
36834;BME280;48003;52.084;5.224;2023-12-14T02:37:01;101324.0;;;9.08;82.69
36834;BME280;48003;52.084;5.224;2023-12-14T02:38:37;101330.0;;;9.11;82.63
36834;BME280;48003;52.084;5.224;2023-12-14T02:41:49;101331.0;;;9.14;82.67
36834;BME280;48003;52.084;5.224;2023-12-14T02:43:25;101330.0;;;9.09;82.62
36834;BME280;48003;52.084;5.224;2023-12-14T02:45:02;101324.0;;;9.02;82.89
36834;BME280;48003;52.084;5.224;2023-12-14T02:48:15;101326.0;;;9.08;82.93
36834;BME280;48003;52.084;5.224;2023-12-14T02:49:51;101333.0;;;9.17;82.71
36834;BME280;48003;52.084;5.224;2023-12-14T02:51:27;101331.0;;;9.17;82.85
36834;BME280;48003;52.084;5.224;2023-12-14T02:53:03;101333.0;;;9.21;82.83
36834;BME280;48003;52.084;5.224;2023-12-14T02:56:15;101341.0;;;9.11;82.97
36834;BME280;48003;52.084;5.224;2023-12-14T02:57:51;101343.0;;;9.1;83.0
36834;BME280;48003;52.084;5.224;2023-12-14T02:59:27;101346.0;;;9.14;82.74
36834;BME280;48003;52.084;5.224;2023-12-14T03:02:41;101348.0;;;9.11;82.97
36834;BME280;48003;52.084;5.224;2023-12-14T03:04:17;101350.0;;;9.14;82.87
36834;BME280;48003;52.084;5.224;2023-12-14T03:05:54;101348.0;;;9.13;82.91
36834;BME280;48003;52.084;5.224;2023-12-14T03:09:06;101356.0;;;9.05;83.27
36834;BME280;48003;52.084;5.224;2023-12-14T03:10:42;101358.0;;;8.98;83.6
36834;BME280;48003;52.084;5.224;2023-12-14T03:12:18;101360.0;;;8.99;83.56
36834;BME280;48003;52.084;5.224;2023-12-14T03:15:31;101357.0;;;9.05;83.21
36834;BME280;48003;52.084;5.224;2023-12-14T03:17:07;101355.0;;;9.0;83.31
36834;BME280;48003;52.084;5.224;2023-12-14T03:18:44;101357.0;;;8.99;83.46
36834;BME280;48003;52.084;5.224;2023-12-14T03:20:20;101359.0;;;9.06;83.25
36834;BME280;48003;52.084;5.224;2023-12-14T03:23:32;101362.0;;;9.0;83.2
36834;BME280;48003;52.084;5.224;2023-12-14T03:25:09;101363.0;;;8.92;83.22
36834;BME280;48003;52.084;5.224;2023-12-14T03:26:45;101364.0;;;8.96;83.2
36834;BME280;48003;52.084;5.224;2023-12-14T03:29:58;101365.0;;;8.92;83.4
36834;BME280;48003;52.084;5.224;2023-12-14T03:31:34;101365.0;;;8.89;83.44
36834;BME280;48003;52.084;5.224;2023-12-14T03:33:10;101363.0;;;8.93;83.35
36834;BME280;48003;52.084;5.224;2023-12-14T03:36:22;101367.0;;;8.98;82.95
36834;BME280;48003;52.084;5.224;2023-12-14T03:37:58;101361.0;;;8.83;83.08
36834;BME280;48003;52.084;5.224;2023-12-14T03:39:34;101360.0;;;8.94;82.97
36834;BME280;48003;52.084;5.224;2023-12-14T03:41:10;101355.0;;;8.92;82.92
36834;BME280;48003;52.084;5.224;2023-12-14T03:44:23;101361.0;;;8.89;83.05
36834;BME280;48003;52.084;5.224;2023-12-14T03:45:59;101360.0;;;8.98;82.66
36834;BME280;48003;52.084;5.224;2023-12-14T03:47:35;101365.0;;;8.96;82.57
36834;BME280;48003;52.084;5.224;2023-12-14T03:50:47;101362.0;;;8.93;82.27
36834;BME280;48003;52.084;5.224;2023-12-14T03:52:23;101369.0;;;8.91;82.42
36834;BME280;48003;52.084;5.224;2023-12-14T03:53:59;101372.0;;;8.92;82.65
36834;BME280;48003;52.084;5.224;2023-12-14T03:57:12;101376.0;;;8.86;82.75
36834;BME280;48003;52.084;5.224;2023-12-14T03:58:48;101382.0;;;8.88;82.64
36834;BME280;48003;52.084;5.224;2023-12-14T04:00:24;101388.0;;;8.77;82.74
36834;BME280;48003;52.084;5.224;2023-12-14T04:03:37;101391.0;;;8.85;82.49
36834;BME280;48003;52.084;5.224;2023-12-14T04:05:13;101391.0;;;8.81;82.43
36834;BME280;48003;52.084;5.224;2023-12-14T04:06:49;101392.0;;;8.81;82.31
36834;BME280;48003;52.084;5.224;2023-12-14T04:08:25;101392.0;;;8.84;82.18
36834;BME280;48003;52.084;5.224;2023-12-14T04:11:38;101393.0;;;8.8;82.21
36834;BME280;48003;52.084;5.224;2023-12-14T04:13:14;101403.0;;;8.69;82.19
36834;BME280;48003;52.084;5.224;2023-12-14T04:14:50;101405.0;;;8.73;82.22
36834;BME280;48003;52.084;5.224;2023-12-14T04:18:03;101410.0;;;8.81;82.03
36834;BME280;48003;52.084;5.224;2023-12-14T04:19:39;101413.0;;;8.81;81.94
36834;BME280;48003;52.084;5.224;2023-12-14T04:21:15;101419.0;;;8.82;82.01
36834;BME280;48003;52.084;5.224;2023-12-14T04:24:28;101427.0;;;8.72;82.16
36834;BME280;48003;52.084;5.224;2023-12-14T04:26:04;101430.0;;;8.73;81.77
36834;BME280;48003;52.084;5.224;2023-12-14T04:27:40;101435.0;;;8.73;81.93
36834;BME280;48003;52.084;5.224;2023-12-14T04:30:52;101438.0;;;8.73;81.83
36834;BME280;48003;52.084;5.224;2023-12-14T04:32:28;101444.0;;;8.69;82.0
36834;BME280;48003;52.084;5.224;2023-12-14T04:34:04;101452.0;;;8.51;82.55
36834;BME280;48003;52.084;5.224;2023-12-14T04:35:40;101452.0;;;8.58;82.13
36834;BME280;48003;52.084;5.224;2023-12-14T04:38:52;101453.0;;;8.64;81.83
36834;BME280;48003;52.084;5.224;2023-12-14T04:40:29;101455.0;;;8.68;81.91
36834;BME280;48003;52.084;5.224;2023-12-14T04:42:05;101460.0;;;8.68;81.77
36834;BME280;48003;52.084;5.224;2023-12-14T04:45:17;101463.0;;;8.66;81.61
36834;BME280;48003;52.084;5.224;2023-12-14T04:46:53;101471.0;;;8.73;81.69
36834;BME280;48003;52.084;5.224;2023-12-14T04:48:29;101475.0;;;8.82;81.44
36834;BME280;48003;52.084;5.224;2023-12-14T04:51:43;101480.0;;;8.73;81.41
36834;BME280;48003;52.084;5.224;2023-12-14T04:54:55;101494.0;;;8.69;81.62
36834;BME280;48003;52.084;5.224;2023-12-14T04:56:31;101499.0;;;8.72;81.45
36834;BME280;48003;52.084;5.224;2023-12-14T04:59:43;101503.0;;;8.77;81.25
36834;BME280;48003;52.084;5.224;2023-12-14T05:01:19;101505.0;;;8.74;81.27
36834;BME280;48003;52.084;5.224;2023-12-14T05:02:55;101505.0;;;8.74;81.23
36834;BME280;48003;52.084;5.224;2023-12-14T05:06:08;101514.0;;;8.71;81.16
36834;BME280;48003;52.084;5.224;2023-12-14T05:07:44;101518.0;;;8.68;81.17
36834;BME280;48003;52.084;5.224;2023-12-14T05:09:20;101530.0;;;8.71;81.05
36834;BME280;48003;52.084;5.224;2023-12-14T05:12:32;101536.0;;;8.61;81.2
36834;BME280;48003;52.084;5.224;2023-12-14T05:14:08;101545.0;;;8.61;80.98
36834;BME280;48003;52.084;5.224;2023-12-14T05:15:44;101548.0;;;8.58;80.78
36834;BME280;48003;52.084;5.224;2023-12-14T05:18:56;101553.0;;;8.64;80.74
36834;BME280;48003;52.084;5.224;2023-12-14T05:20:32;101557.0;;;8.6;80.53
36834;BME280;48003;52.084;5.224;2023-12-14T05:22:08;101559.0;;;8.65;80.7
36834;BME280;48003;52.084;5.224;2023-12-14T05:23:45;101558.0;;;8.66;80.75
36834;BME280;48003;52.084;5.224;2023-12-14T05:26:56;101563.0;;;8.65;80.64
36834;BME280;48003;52.084;5.224;2023-12-14T05:28:32;101569.0;;;8.66;80.25
36834;BME280;48003;52.084;5.224;2023-12-14T05:30:09;101569.0;;;8.64;79.91
36834;BME280;48003;52.084;5.224;2023-12-14T05:33:22;101573.0;;;8.6;79.7
36834;BME280;48003;52.084;5.224;2023-12-14T05:34:58;101575.0;;;8.6;79.44
36834;BME280;48003;52.084;5.224;2023-12-14T05:36:34;101574.0;;;8.61;79.69
36834;BME280;48003;52.084;5.224;2023-12-14T05:39:46;101585.0;;;8.63;79.5
36834;BME280;48003;52.084;5.224;2023-12-14T05:41:22;101588.0;;;8.64;79.23
36834;BME280;48003;52.084;5.224;2023-12-14T05:42:58;101591.0;;;8.5;79.55
36834;BME280;48003;52.084;5.224;2023-12-14T05:46:20;101590.0;;;8.53;79.33
36834;BME280;48003;52.084;5.224;2023-12-14T05:47:56;101588.0;;;8.44;79.3
36834;BME280;48003;52.084;5.224;2023-12-14T05:49:33;101589.0;;;8.5;79.33
36834;BME280;48003;52.084;5.224;2023-12-14T05:51:09;101593.0;;;8.47;79.44
36834;BME280;48003;52.084;5.224;2023-12-14T05:54:21;101597.0;;;8.41;79.66
36834;BME280;48003;52.084;5.224;2023-12-14T05:55:57;101599.0;;;8.45;79.37
36834;BME280;48003;52.084;5.224;2023-12-14T05:57:33;101610.0;;;8.56;79.06
36834;BME280;48003;52.084;5.224;2023-12-14T06:00:45;101614.0;;;8.51;79.36
36834;BME280;48003;52.084;5.224;2023-12-14T06:02:21;101620.0;;;8.45;79.34
36834;BME280;48003;52.084;5.224;2023-12-14T06:03:58;101617.0;;;8.48;78.97
36834;BME280;48003;52.084;5.224;2023-12-14T06:05:34;101620.0;;;8.55;78.58
36834;BME280;48003;52.084;5.224;2023-12-14T06:08:46;101623.0;;;8.44;78.72
36834;BME280;48003;52.084;5.224;2023-12-14T06:10:22;101624.0;;;8.49;78.53
36834;BME280;48003;52.084;5.224;2023-12-14T06:11:58;101623.0;;;8.49;78.47
36834;BME280;48003;52.084;5.224;2023-12-14T06:15:10;101623.0;;;8.49;78.25
36834;BME280;48003;52.084;5.224;2023-12-14T06:16:46;101625.0;;;8.57;78.05
36834;BME280;48003;52.084;5.224;2023-12-14T06:18:23;101623.0;;;8.59;77.72
36834;BME280;48003;52.084;5.224;2023-12-14T06:21:35;101630.0;;;8.56;77.69
36834;BME280;48003;52.084;5.224;2023-12-14T06:23:11;101641.0;;;8.53;77.75
36834;BME280;48003;52.084;5.224;2023-12-14T06:24:47;101648.0;;;8.53;77.97
36834;BME280;48003;52.084;5.224;2023-12-14T06:27:59;101660.0;;;8.58;77.81
36834;BME280;48003;52.084;5.224;2023-12-14T06:29:35;101663.0;;;8.59;77.95
36834;BME280;48003;52.084;5.224;2023-12-14T06:31:12;101671.0;;;8.57;77.89
36834;BME280;48003;52.084;5.224;2023-12-14T06:32:48;101674.0;;;8.59;77.61
36834;BME280;48003;52.084;5.224;2023-12-14T06:36:03;101680.0;;;8.52;77.55
36834;BME280;48003;52.084;5.224;2023-12-14T06:37:40;101691.0;;;8.43;77.02
36834;BME280;48003;52.084;5.224;2023-12-14T06:39:16;101693.0;;;8.41;76.49
36834;BME280;48003;52.084;5.224;2023-12-14T06:42:28;101693.0;;;8.26;76.11
36834;BME280;48003;52.084;5.224;2023-12-14T06:44:04;101702.0;;;8.26;76.05
36834;BME280;48003;52.084;5.224;2023-12-14T06:45:40;101698.0;;;8.28;76.11
36834;BME280;48003;52.084;5.224;2023-12-14T06:48:53;101705.0;;;8.31;76.19
36834;BME280;48003;52.084;5.224;2023-12-14T06:50:29;101706.0;;;8.38;76.19
36834;BME280;48003;52.084;5.224;2023-12-14T06:52:05;101708.0;;;8.32;76.22
36834;BME280;48003;52.084;5.224;2023-12-14T06:53:42;101716.0;;;8.28;76.08
36834;BME280;48003;52.084;5.224;2023-12-14T06:56:54;101726.0;;;8.28;75.95
36834;BME280;48003;52.084;5.224;2023-12-14T06:58:30;101730.0;;;8.3;75.81
36834;BME280;48003;52.084;5.224;2023-12-14T07:00:07;101733.0;;;8.3;75.72
36834;BME280;48003;52.084;5.224;2023-12-14T07:03:19;101734.0;;;8.31;75.83
36834;BME280;48003;52.084;5.224;2023-12-14T07:04:56;101747.0;;;8.18;76.12
36834;BME280;48003;52.084;5.224;2023-12-14T07:06:32;101755.0;;;8.16;76.17
36834;BME280;48003;52.084;5.224;2023-12-14T07:09:44;101756.0;;;8.23;76.06
36834;BME280;48003;52.084;5.224;2023-12-14T07:11:20;101757.0;;;8.31;76.11
36834;BME280;48003;52.084;5.224;2023-12-14T07:12:56;101760.0;;;8.38;75.92
36834;BME280;48003;52.084;5.224;2023-12-14T07:16:10;101762.0;;;8.35;75.75
36834;BME280;48003;52.084;5.224;2023-12-14T07:17:47;101761.0;;;8.31;75.72
36834;BME280;48003;52.084;5.224;2023-12-14T07:19:23;101759.0;;;8.4;75.27
36834;BME280;48003;52.084;5.224;2023-12-14T07:20:59;101760.0;;;8.43;75.24
36834;BME280;48003;52.084;5.224;2023-12-14T07:24:11;101760.0;;;8.41;75.7
36834;BME280;48003;52.084;5.224;2023-12-14T07:25:47;101767.0;;;8.4;75.33
36834;BME280;48003;52.084;5.224;2023-12-14T07:27:23;101769.0;;;8.43;75.69
36834;BME280;48003;52.084;5.224;2023-12-14T07:30:35;101772.0;;;8.38;77.11
36834;BME280;48003;52.084;5.224;2023-12-14T07:32:12;101780.0;;;8.34;76.42
36834;BME280;48003;52.084;5.224;2023-12-14T07:33:48;101782.0;;;8.36;76.33
36834;BME280;48003;52.084;5.224;2023-12-14T07:37:00;101792.0;;;8.38;76.25
36834;BME280;48003;52.084;5.224;2023-12-14T07:38:36;101798.0;;;8.33;76.45
36834;BME280;48003;52.084;5.224;2023-12-14T07:40:12;101800.0;;;8.3;76.52
36834;BME280;48003;52.084;5.224;2023-12-14T07:41:48;101800.0;;;8.34;76.59
36834;BME280;48003;52.084;5.224;2023-12-14T07:45:00;101805.0;;;8.34;76.5
36834;BME280;48003;52.084;5.224;2023-12-14T07:46:37;101798.0;;;8.34;77.37
36834;BME280;48003;52.084;5.224;2023-12-14T07:48:13;101801.0;;;8.32;76.56
36834;BME280;48003;52.084;5.224;2023-12-14T07:51:25;101805.0;;;8.35;75.77
36834;BME280;48003;52.084;5.224;2023-12-14T07:53:01;101810.0;;;8.35;75.69
36834;BME280;48003;52.084;5.224;2023-12-14T07:54:37;101814.0;;;8.31;76.28
36834;BME280;48003;52.084;5.224;2023-12-14T07:57:49;101815.0;;;8.31;77.53
36834;BME280;48003;52.084;5.224;2023-12-14T07:59:26;101818.0;;;8.35;77.22
36834;BME280;48003;52.084;5.224;2023-12-14T08:01:02;101819.0;;;8.34;76.98
36834;BME280;48003;52.084;5.224;2023-12-14T08:04:14;101826.0;;;8.35;75.95
36834;BME280;48003;52.084;5.224;2023-12-14T08:05:50;101828.0;;;8.35;75.67
36834;BME280;48003;52.084;5.224;2023-12-14T08:07:26;101826.0;;;8.39;75.52
36834;BME280;48003;52.084;5.224;2023-12-14T08:09:02;101833.0;;;8.39;75.58
36834;BME280;48003;52.084;5.224;2023-12-14T08:12:14;101836.0;;;8.39;75.55
36834;BME280;48003;52.084;5.224;2023-12-14T08:13:50;101838.0;;;8.39;75.69
36834;BME280;48003;52.084;5.224;2023-12-14T08:18:39;101845.0;;;8.35;75.72
36834;BME280;48003;52.084;5.224;2023-12-14T08:20:15;101840.0;;;8.41;75.66
36834;BME280;48003;52.084;5.224;2023-12-14T08:21:51;101846.0;;;8.39;75.97
36834;BME280;48003;52.084;5.224;2023-12-14T08:25:04;101844.0;;;8.32;77.19
36834;BME280;48003;52.084;5.224;2023-12-14T08:26:40;101849.0;;;8.31;77.2
36834;BME280;48003;52.084;5.224;2023-12-14T08:28:16;101851.0;;;8.35;76.55
36834;BME280;48003;52.084;5.224;2023-12-14T08:29:53;101855.0;;;8.33;78.64
36834;BME280;48003;52.084;5.224;2023-12-14T08:33:05;101853.0;;;8.27;79.3
36834;BME280;48003;52.084;5.224;2023-12-14T08:34:41;101856.0;;;8.28;79.53
36834;BME280;48003;52.084;5.224;2023-12-14T08:36:17;101855.0;;;8.27;80.47
36834;BME280;48003;52.084;5.224;2023-12-14T08:39:29;101861.0;;;8.26;78.75
36834;BME280;48003;52.084;5.224;2023-12-14T08:41:05;101865.0;;;8.32;77.41
36834;BME280;48003;52.084;5.224;2023-12-14T08:42:41;101867.0;;;8.41;76.5
36834;BME280;48003;52.084;5.224;2023-12-14T08:45:54;101875.0;;;8.39;76.64
36834;BME280;48003;52.084;5.224;2023-12-14T08:47:30;101880.0;;;8.4;76.58
36834;BME280;48003;52.084;5.224;2023-12-14T08:49:06;101883.0;;;8.41;76.22
36834;BME280;48003;52.084;5.224;2023-12-14T08:52:18;101893.0;;;8.48;75.91
36834;BME280;48003;52.084;5.224;2023-12-14T08:53:54;101903.0;;;8.39;78.05
36834;BME280;48003;52.084;5.224;2023-12-14T08:55:30;101902.0;;;8.36;77.66
36834;BME280;48003;52.084;5.224;2023-12-14T08:57:06;101905.0;;;8.39;77.47
36834;BME280;48003;52.084;5.224;2023-12-14T09:00:19;101905.0;;;8.42;76.99
36834;BME280;48003;52.084;5.224;2023-12-14T09:01:55;101905.0;;;8.42;77.37
36834;BME280;48003;52.084;5.224;2023-12-14T09:03:31;101902.0;;;8.39;78.59
36834;BME280;48003;52.084;5.224;2023-12-14T09:06:44;101907.0;;;8.39;78.63
36834;BME280;48003;52.084;5.224;2023-12-14T09:08:20;101912.0;;;8.43;77.23
36834;BME280;48003;52.084;5.224;2023-12-14T09:09:56;101914.0;;;8.49;76.91
36834;BME280;48003;52.084;5.224;2023-12-14T09:13:10;101918.0;;;8.48;76.14
36834;BME280;48003;52.084;5.224;2023-12-14T09:14:46;101924.0;;;8.51;75.55
36834;BME280;48003;52.084;5.224;2023-12-14T09:16:23;101928.0;;;8.56;75.41
36834;BME280;48003;52.084;5.224;2023-12-14T09:17:59;101933.0;;;8.59;75.37
36834;BME280;48003;52.084;5.224;2023-12-14T09:21:11;101930.0;;;8.64;74.91
36834;BME280;48003;52.084;5.224;2023-12-14T09:22:47;101938.0;;;8.65;74.87
36834;BME280;48003;52.084;5.224;2023-12-14T09:24:23;101939.0;;;8.66;74.72
36834;BME280;48003;52.084;5.224;2023-12-14T09:27:36;101946.0;;;8.65;74.81
36834;BME280;48003;52.084;5.224;2023-12-14T09:29:12;101946.0;;;8.66;74.8
36834;BME280;48003;52.084;5.224;2023-12-14T09:30:48;101950.0;;;8.64;74.78
36834;BME280;48003;52.084;5.224;2023-12-14T09:34:00;101955.0;;;8.71;74.75
36834;BME280;48003;52.084;5.224;2023-12-14T09:35:36;101958.0;;;8.73;74.52
36834;BME280;48003;52.084;5.224;2023-12-14T09:37:12;101957.0;;;8.76;74.33
36834;BME280;48003;52.084;5.224;2023-12-14T09:40:24;101965.0;;;8.77;74.3
36834;BME280;48003;52.084;5.224;2023-12-14T09:42:02;101967.0;;;8.73;74.11
36834;BME280;48003;52.084;5.224;2023-12-14T09:43:38;101973.0;;;8.75;73.89
36834;BME280;48003;52.084;5.224;2023-12-14T09:45:16;101977.0;;;8.78;74.02
36834;BME280;48003;52.084;5.224;2023-12-14T09:50:08;101983.0;;;8.81;73.12
36834;BME280;48003;52.084;5.224;2023-12-14T09:51:44;101992.0;;;8.8;73.33
36834;BME280;48003;52.084;5.224;2023-12-14T09:56:33;101998.0;;;8.94;73.28
36834;BME280;48003;52.084;5.224;2023-12-14T09:58:09;101998.0;;;8.98;73.97
36834;BME280;48003;52.084;5.224;2023-12-14T10:01:27;101994.0;;;9.02;73.8
36834;BME280;48003;52.084;5.224;2023-12-14T10:03:19;101994.0;;;9.05;74.94
36834;BME280;48003;52.084;5.224;2023-12-14T10:04:56;101997.0;;;9.15;73.47
36834;BME280;48003;52.084;5.224;2023-12-14T10:06:32;101999.0;;;9.18;73.48
36834;BME280;48003;52.084;5.224;2023-12-14T10:09:44;102002.0;;;9.24;73.67
36834;BME280;48003;52.084;5.224;2023-12-14T10:11:20;102007.0;;;9.32;73.38
36834;BME280;48003;52.084;5.224;2023-12-14T10:12:58;102009.0;;;9.39;72.19
36834;BME280;48003;52.084;5.224;2023-12-14T10:14:35;102011.0;;;9.39;72.03
36834;BME280;48003;52.084;5.224;2023-12-14T10:17:51;102014.0;;;9.43;72.11
36834;BME280;48003;52.084;5.224;2023-12-14T10:19:27;102015.0;;;9.46;72.61
36834;BME280;48003;52.084;5.224;2023-12-14T10:21:06;102023.0;;;9.48;70.94
36834;BME280;48003;52.084;5.224;2023-12-14T10:24:20;102021.0;;;9.47;72.12
36834;BME280;48003;52.084;5.224;2023-12-14T10:25:56;102019.0;;;9.49;72.52
36834;BME280;48003;52.084;5.224;2023-12-14T10:27:33;102015.0;;;9.47;70.67
36834;BME280;48003;52.084;5.224;2023-12-14T10:29:09;102021.0;;;9.48;70.41
36834;BME280;48003;52.084;5.224;2023-12-14T10:32:21;102009.0;;;9.49;72.03
36834;BME280;48003;52.084;5.224;2023-12-14T10:33:58;102015.0;;;9.44;71.94
36834;BME280;48003;52.084;5.224;2023-12-14T10:35:34;102021.0;;;9.4;73.47
36834;BME280;48003;52.084;5.224;2023-12-14T10:38:52;102022.0;;;9.34;72.95
36834;BME280;48003;52.084;5.224;2023-12-14T10:40:29;102025.0;;;9.31;73.23
36834;BME280;48003;52.084;5.224;2023-12-14T10:42:06;102025.0;;;9.31;72.53
36834;BME280;48003;52.084;5.224;2023-12-14T10:45:25;102026.0;;;9.33;72.83
36834;BME280;48003;52.084;5.224;2023-12-14T10:47:06;102027.0;;;9.4;72.38
36834;BME280;48003;52.084;5.224;2023-12-14T10:48:43;102031.0;;;9.4;72.74
36834;BME280;48003;52.084;5.224;2023-12-14T10:50:21;102032.0;;;9.43;71.58
36834;BME280;48003;52.084;5.224;2023-12-14T10:53:36;102034.0;;;9.43;72.91
36834;BME280;48003;52.084;5.224;2023-12-14T10:55:20;102040.0;;;9.48;72.86
36834;BME280;48003;52.084;5.224;2023-12-14T10:56:58;102037.0;;;9.48;73.61
36834;BME280;48003;52.084;5.224;2023-12-14T10:58:47;102044.0;;;9.5;74.44
36834;BME280;48003;52.084;5.224;2023-12-14T11:02:06;102048.0;;;9.53;73.61
36834;BME280;48003;52.084;5.224;2023-12-14T11:03:43;102053.0;;;9.59;71.77
36834;BME280;48003;52.084;5.224;2023-12-14T11:05:22;102055.0;;;9.66;70.66
36834;BME280;48003;52.084;5.224;2023-12-14T11:06:58;102058.0;;;9.65;70.69
36834;BME280;48003;52.084;5.224;2023-12-14T11:10:11;102055.0;;;9.66;69.86
36834;BME280;48003;52.084;5.224;2023-12-14T11:11:55;102049.0;;;9.74;70.41
36834;BME280;48003;52.084;5.224;2023-12-14T11:13:32;102050.0;;;9.74;71.45
36834;BME280;48003;52.084;5.224;2023-12-14T11:15:10;102048.0;;;9.74;70.41
36834;BME280;48003;52.084;5.224;2023-12-14T11:18:25;102060.0;;;9.75;69.25
36834;BME280;48003;52.084;5.224;2023-12-14T11:20:23;102058.0;;;9.8;68.91
36834;BME280;48003;52.084;5.224;2023-12-14T11:22:12;102060.0;;;9.86;68.66
36834;BME280;48003;52.084;5.224;2023-12-14T11:24:01;102067.0;;;10.06;68.8